sensor_id;sensor_type;location;lat;lon;timestamp;temperature;humidity
66962;HTU21D;53897;51.126;5.868;2022-10-16T00:00:53;23.24;52.06
66962;HTU21D;53897;51.126;5.868;2022-10-16T00:03:18;23.24;52.05
66962;HTU21D;53897;51.126;5.868;2022-10-16T00:05:44;23.23;52.03
66962;HTU21D;53897;51.126;5.868;2022-10-16T00:08:11;23.22;52.04
66962;HTU21D;53897;51.126;5.868;2022-10-16T00:10:39;23.22;52.02
66962;HTU21D;53897;51.126;5.868;2022-10-16T00:13:05;23.22;52.02
66962;HTU21D;53897;51.126;5.868;2022-10-16T00:15:36;23.18;52.00
66962;HTU21D;53897;51.126;5.868;2022-10-16T00:18:04;23.20;52.00
66962;HTU21D;53897;51.126;5.868;2022-10-16T00:20:30;23.20;51.97
66962;HTU21D;53897;51.126;5.868;2022-10-16T00:23:18;23.17;51.98
66962;HTU21D;53897;51.126;5.868;2022-10-16T00:25:44;23.16;51.96
66962;HTU21D;53897;51.126;5.868;2022-10-16T00:28:10;23.16;51.96
66962;HTU21D;53897;51.126;5.868;2022-10-16T00:30:39;23.15;51.97
66962;HTU21D;53897;51.126;5.868;2022-10-16T00:33:05;23.15;51.95
66962;HTU21D;53897;51.126;5.868;2022-10-16T00:35:31;23.14;51.95
66962;HTU21D;53897;51.126;5.868;2022-10-16T00:37:57;23.13;51.92
66962;HTU21D;53897;51.126;5.868;2022-10-16T00:40:22;23.13;51.92
66962;HTU21D;53897;51.126;5.868;2022-10-16T00:42:48;23.12;51.89
66962;HTU21D;53897;51.126;5.868;2022-10-16T00:45:14;23.12;51.91
66962;HTU21D;53897;51.126;5.868;2022-10-16T00:47:43;23.11;51.89
66962;HTU21D;53897;51.126;5.868;2022-10-16T00:50:24;23.11;51.88
66962;HTU21D;53897;51.126;5.868;2022-10-16T00:52:52;23.10;51.87
66962;HTU21D;53897;51.126;5.868;2022-10-16T00:55:19;23.09;51.87
66962;HTU21D;53897;51.126;5.868;2022-10-16T00:57:46;23.09;51.88
66962;HTU21D;53897;51.126;5.868;2022-10-16T01:00:16;23.10;51.85
66962;HTU21D;53897;51.126;5.868;2022-10-16T01:02:43;23.08;51.85
66962;HTU21D;53897;51.126;5.868;2022-10-16T01:05:09;23.08;51.82
66962;HTU21D;53897;51.126;5.868;2022-10-16T01:10:38;23.06;51.80
66962;HTU21D;53897;51.126;5.868;2022-10-16T01:16:32;23.06;51.74
66962;HTU21D;53897;51.126;5.868;2022-10-16T01:19:12;23.02;51.74
66962;HTU21D;53897;51.126;5.868;2022-10-16T01:21:43;23.00;51.75
66962;HTU21D;53897;51.126;5.868;2022-10-16T01:24:33;23.01;51.75
66962;HTU21D;53897;51.126;5.868;2022-10-16T01:27:16;23.00;51.75
66962;HTU21D;53897;51.126;5.868;2022-10-16T01:30:12;23.00;51.74
66962;HTU21D;53897;51.126;5.868;2022-10-16T01:35:29;22.99;51.72
66962;HTU21D;53897;51.126;5.868;2022-10-16T01:38:17;22.98;51.72
66962;HTU21D;53897;51.126;5.868;2022-10-16T01:40:50;22.97;51.71
66962;HTU21D;53897;51.126;5.868;2022-10-16T01:43:29;22.96;51.72
66962;HTU21D;53897;51.126;5.868;2022-10-16T01:45:58;22.96;51.71
66962;HTU21D;53897;51.126;5.868;2022-10-16T01:48:25;22.95;51.70
66962;HTU21D;53897;51.126;5.868;2022-10-16T01:51:12;22.95;51.71
66962;HTU21D;53897;51.126;5.868;2022-10-16T01:53:43;22.95;51.69
66962;HTU21D;53897;51.126;5.868;2022-10-16T01:56:16;22.94;51.68
66962;HTU21D;53897;51.126;5.868;2022-10-16T01:58:56;22.94;51.66
66962;HTU21D;53897;51.126;5.868;2022-10-16T02:01:27;22.93;51.66
66962;HTU21D;53897;51.126;5.868;2022-10-16T02:04:00;22.92;51.64
66962;HTU21D;53897;51.126;5.868;2022-10-16T02:06:27;22.92;51.63
66962;HTU21D;53897;51.126;5.868;2022-10-16T02:08:55;22.92;51.61
66962;HTU21D;53897;51.126;5.868;2022-10-16T02:11:20;22.91;51.60
66962;HTU21D;53897;51.126;5.868;2022-10-16T02:14:01;22.90;51.59
66962;HTU21D;53897;51.126;5.868;2022-10-16T02:16:42;22.87;51.57
66962;HTU21D;53897;51.126;5.868;2022-10-16T02:19:13;22.87;51.58
66962;HTU21D;53897;51.126;5.868;2022-10-16T02:21:58;22.87;51.58
66962;HTU21D;53897;51.126;5.868;2022-10-16T02:24:55;22.86;51.57
66962;HTU21D;53897;51.126;5.868;2022-10-16T02:27:30;22.87;51.55
66962;HTU21D;53897;51.126;5.868;2022-10-16T02:30:07;22.85;51.55
66962;HTU21D;53897;51.126;5.868;2022-10-16T02:32:37;22.85;51.54
66962;HTU21D;53897;51.126;5.868;2022-10-16T02:35:07;22.84;51.55
66962;HTU21D;53897;51.126;5.868;2022-10-16T02:37:33;22.84;51.53
66962;HTU21D;53897;51.126;5.868;2022-10-16T02:39:59;22.84;51.54
66962;HTU21D;53897;51.126;5.868;2022-10-16T02:42:36;22.84;51.54
66962;HTU21D;53897;51.126;5.868;2022-10-16T02:45:03;22.83;51.53
66962;HTU21D;53897;51.126;5.868;2022-10-16T02:47:29;22.82;51.50
66962;HTU21D;53897;51.126;5.868;2022-10-16T02:49:55;22.81;51.50
66962;HTU21D;53897;51.126;5.868;2022-10-16T02:52:21;22.81;51.49
66962;HTU21D;53897;51.126;5.868;2022-10-16T02:54:46;22.81;51.49
66962;HTU21D;53897;51.126;5.868;2022-10-16T02:57:12;22.80;51.47
66962;HTU21D;53897;51.126;5.868;2022-10-16T02:59:38;22.80;51.46
66962;HTU21D;53897;51.126;5.868;2022-10-16T03:02:04;22.79;51.47
66962;HTU21D;53897;51.126;5.868;2022-10-16T03:04:30;22.78;51.45
66962;HTU21D;53897;51.126;5.868;2022-10-16T03:06:56;22.79;51.46
66962;HTU21D;53897;51.126;5.868;2022-10-16T03:09:21;22.77;51.44
66962;HTU21D;53897;51.126;5.868;2022-10-16T03:11:47;22.77;51.43
66962;HTU21D;53897;51.126;5.868;2022-10-16T03:14:13;22.76;51.41
66962;HTU21D;53897;51.126;5.868;2022-10-16T03:16:38;22.79;51.36
66962;HTU21D;53897;51.126;5.868;2022-10-16T03:19:04;22.77;51.38
66962;HTU21D;53897;51.126;5.868;2022-10-16T03:21:30;22.76;51.39
66962;HTU21D;53897;51.126;5.868;2022-10-16T03:23:56;22.75;51.40
66962;HTU21D;53897;51.126;5.868;2022-10-16T03:26:21;22.73;51.40
66962;HTU21D;53897;51.126;5.868;2022-10-16T03:28:47;22.72;51.40
66962;HTU21D;53897;51.126;5.868;2022-10-16T03:31:13;22.73;51.40
66962;HTU21D;53897;51.126;5.868;2022-10-16T03:33:38;22.73;51.38
66962;HTU21D;53897;51.126;5.868;2022-10-16T03:36:04;22.73;51.37
66962;HTU21D;53897;51.126;5.868;2022-10-16T03:38:30;22.72;51.37
66962;HTU21D;53897;51.126;5.868;2022-10-16T03:40:56;22.72;51.34
66962;HTU21D;53897;51.126;5.868;2022-10-16T03:43:22;22.71;51.33
66962;HTU21D;53897;51.126;5.868;2022-10-16T03:45:47;22.71;51.34
66962;HTU21D;53897;51.126;5.868;2022-10-16T03:48:15;22.71;51.33
66962;HTU21D;53897;51.126;5.868;2022-10-16T03:50:40;22.69;51.32
66962;HTU21D;53897;51.126;5.868;2022-10-16T03:53:06;22.70;51.30
66962;HTU21D;53897;51.126;5.868;2022-10-16T03:55:32;22.69;51.33
66962;HTU21D;53897;51.126;5.868;2022-10-16T03:57:58;22.68;51.32
66962;HTU21D;53897;51.126;5.868;2022-10-16T04:00:23;22.68;51.30
66962;HTU21D;53897;51.126;5.868;2022-10-16T04:02:49;22.68;51.32
66962;HTU21D;53897;51.126;5.868;2022-10-16T04:05:15;22.67;51.30
66962;HTU21D;53897;51.126;5.868;2022-10-16T04:07:40;22.67;51.29
66962;HTU21D;53897;51.126;5.868;2022-10-16T04:10:06;22.66;51.28
66962;HTU21D;53897;51.126;5.868;2022-10-16T04:12:32;22.66;51.27
66962;HTU21D;53897;51.126;5.868;2022-10-16T04:14:58;22.65;51.28
66962;HTU21D;53897;51.126;5.868;2022-10-16T04:17:23;22.65;51.28
66962;HTU21D;53897;51.126;5.868;2022-10-16T04:19:49;22.65;51.26
66962;HTU21D;53897;51.126;5.868;2022-10-16T04:22:15;22.64;51.24
66962;HTU21D;53897;51.126;5.868;2022-10-16T04:24:41;22.64;51.24
66962;HTU21D;53897;51.126;5.868;2022-10-16T04:27:06;22.63;51.25
66962;HTU21D;53897;51.126;5.868;2022-10-16T04:29:32;22.64;51.22
66962;HTU21D;53897;51.126;5.868;2022-10-16T04:31:58;22.63;51.22
66962;HTU21D;53897;51.126;5.868;2022-10-16T04:34:24;22.62;51.23
66962;HTU21D;53897;51.126;5.868;2022-10-16T04:36:49;22.63;51.22
66962;HTU21D;53897;51.126;5.868;2022-10-16T04:39:15;22.62;51.21
66962;HTU21D;53897;51.126;5.868;2022-10-16T04:41:41;22.61;51.21
66962;HTU21D;53897;51.126;5.868;2022-10-16T04:44:07;22.60;51.18
66962;HTU21D;53897;51.126;5.868;2022-10-16T04:46:33;22.60;51.19
66962;HTU21D;53897;51.126;5.868;2022-10-16T04:48:59;22.60;51.17
66962;HTU21D;53897;51.126;5.868;2022-10-16T04:51:25;22.57;51.16
66962;HTU21D;53897;51.126;5.868;2022-10-16T04:53:51;22.58;51.14
66962;HTU21D;53897;51.126;5.868;2022-10-16T04:56:17;22.58;51.15
66962;HTU21D;53897;51.126;5.868;2022-10-16T04:58:43;22.57;51.15
66962;HTU21D;53897;51.126;5.868;2022-10-16T05:01:09;22.56;51.13
66962;HTU21D;53897;51.126;5.868;2022-10-16T05:03:34;22.56;51.14
66962;HTU21D;53897;51.126;5.868;2022-10-16T05:06:00;22.56;51.12
66962;HTU21D;53897;51.126;5.868;2022-10-16T05:08:26;22.55;51.11
66962;HTU21D;53897;51.126;5.868;2022-10-16T05:10:51;22.55;51.12
66962;HTU21D;53897;51.126;5.868;2022-10-16T05:13:17;22.54;51.12
66962;HTU21D;53897;51.126;5.868;2022-10-16T05:15:47;22.54;51.12
66962;HTU21D;53897;51.126;5.868;2022-10-16T05:18:13;22.54;51.08
66962;HTU21D;53897;51.126;5.868;2022-10-16T05:20:39;22.55;51.08
66962;HTU21D;53897;51.126;5.868;2022-10-16T05:23:05;22.53;51.08
66962;HTU21D;53897;51.126;5.868;2022-10-16T05:25:30;22.53;51.12
66962;HTU21D;53897;51.126;5.868;2022-10-16T05:27:56;22.53;51.13
66962;HTU21D;53897;51.126;5.868;2022-10-16T05:30:22;22.51;51.21
66962;HTU21D;53897;51.126;5.868;2022-10-16T05:32:49;22.48;51.33
66962;HTU21D;53897;51.126;5.868;2022-10-16T05:35:17;22.46;51.42
66962;HTU21D;53897;51.126;5.868;2022-10-16T05:37:44;22.47;51.43
66962;HTU21D;53897;51.126;5.868;2022-10-16T05:40:10;22.46;51.44
66962;HTU21D;53897;51.126;5.868;2022-10-16T05:42:36;22.46;51.44
66962;HTU21D;53897;51.126;5.868;2022-10-16T05:45:04;22.46;51.44
66962;HTU21D;53897;51.126;5.868;2022-10-16T05:47:30;22.46;51.42
66962;HTU21D;53897;51.126;5.868;2022-10-16T05:49:55;22.47;51.43
66962;HTU21D;53897;51.126;5.868;2022-10-16T05:52:21;22.44;51.42
66962;HTU21D;53897;51.126;5.868;2022-10-16T05:54:47;22.46;51.42
66962;HTU21D;53897;51.126;5.868;2022-10-16T05:57:12;22.46;51.42
66962;HTU21D;53897;51.126;5.868;2022-10-16T05:59:38;22.47;51.42
66962;HTU21D;53897;51.126;5.868;2022-10-16T06:02:04;22.47;51.42
66962;HTU21D;53897;51.126;5.868;2022-10-16T06:04:29;22.46;51.43
66962;HTU21D;53897;51.126;5.868;2022-10-16T06:06:58;22.46;51.41
66962;HTU21D;53897;51.126;5.868;2022-10-16T06:09:26;22.46;51.48
66962;HTU21D;53897;51.126;5.868;2022-10-16T06:11:52;22.44;51.53
66962;HTU21D;53897;51.126;5.868;2022-10-16T06:14:17;22.43;51.58
66962;HTU21D;53897;51.126;5.868;2022-10-16T06:16:43;22.42;51.60
66962;HTU21D;53897;51.126;5.868;2022-10-16T06:19:09;22.40;51.66
66962;HTU21D;53897;51.126;5.868;2022-10-16T06:21:35;22.40;51.66
66962;HTU21D;53897;51.126;5.868;2022-10-16T06:24:00;22.41;51.67
66962;HTU21D;53897;51.126;5.868;2022-10-16T06:26:29;22.41;51.66
66962;HTU21D;53897;51.126;5.868;2022-10-16T06:28:56;22.41;51.69
66962;HTU21D;53897;51.126;5.868;2022-10-16T06:31:23;22.42;51.70
66962;HTU21D;53897;51.126;5.868;2022-10-16T06:33:53;22.41;51.80
66962;HTU21D;53897;51.126;5.868;2022-10-16T06:36:20;22.43;51.82
66962;HTU21D;53897;51.126;5.868;2022-10-16T06:38:46;22.43;51.84
66962;HTU21D;53897;51.126;5.868;2022-10-16T06:41:17;22.42;51.86
66962;HTU21D;53897;51.126;5.868;2022-10-16T06:43:44;22.44;51.90
66962;HTU21D;53897;51.126;5.868;2022-10-16T06:46:16;22.44;51.89
66962;HTU21D;53897;51.126;5.868;2022-10-16T06:48:42;22.48;51.90
66962;HTU21D;53897;51.126;5.868;2022-10-16T06:51:17;22.46;51.91
66962;HTU21D;53897;51.126;5.868;2022-10-16T06:53:45;22.46;51.90
66962;HTU21D;53897;51.126;5.868;2022-10-16T06:56:14;22.47;51.88
66962;HTU21D;53897;51.126;5.868;2022-10-16T06:58:41;22.47;51.88
66962;HTU21D;53897;51.126;5.868;2022-10-16T07:01:07;22.46;51.84
66962;HTU21D;53897;51.126;5.868;2022-10-16T07:03:36;22.47;51.92
66962;HTU21D;53897;51.126;5.868;2022-10-16T07:06:03;22.43;52.03
66962;HTU21D;53897;51.126;5.868;2022-10-16T07:08:34;22.41;52.13
66962;HTU21D;53897;51.126;5.868;2022-10-16T07:11:09;22.42;51.95
66962;HTU21D;53897;51.126;5.868;2022-10-16T07:13:36;22.42;51.96
66962;HTU21D;53897;51.126;5.868;2022-10-16T07:16:14;22.42;52.02
66962;HTU21D;53897;51.126;5.868;2022-10-16T07:18:41;22.42;52.01
66962;HTU21D;53897;51.126;5.868;2022-10-16T07:21:11;22.43;52.04
66962;HTU21D;53897;51.126;5.868;2022-10-16T07:23:37;22.44;52.07
66962;HTU21D;53897;51.126;5.868;2022-10-16T07:26:04;22.47;52.07
66962;HTU21D;53897;51.126;5.868;2022-10-16T07:28:31;22.48;52.04
66962;HTU21D;53897;51.126;5.868;2022-10-16T07:31:10;22.48;51.99
66962;HTU21D;53897;51.126;5.868;2022-10-16T07:33:37;22.50;51.95
66962;HTU21D;53897;51.126;5.868;2022-10-16T07:36:04;22.51;51.91
66962;HTU21D;53897;51.126;5.868;2022-10-16T07:38:30;22.52;51.88
66962;HTU21D;53897;51.126;5.868;2022-10-16T07:41:01;22.53;51.85
66962;HTU21D;53897;51.126;5.868;2022-10-16T07:43:28;22.53;51.82
66962;HTU21D;53897;51.126;5.868;2022-10-16T07:45:54;22.54;51.81
66962;HTU21D;53897;51.126;5.868;2022-10-16T07:48:22;22.54;51.78
66962;HTU21D;53897;51.126;5.868;2022-10-16T07:50:48;22.56;51.75
66962;HTU21D;53897;51.126;5.868;2022-10-16T07:53:15;22.56;51.74
66962;HTU21D;53897;51.126;5.868;2022-10-16T07:55:41;22.56;51.71
66962;HTU21D;53897;51.126;5.868;2022-10-16T07:58:07;22.56;51.69
66962;HTU21D;53897;51.126;5.868;2022-10-16T08:00:33;22.56;51.73
66962;HTU21D;53897;51.126;5.868;2022-10-16T08:03:00;22.55;51.84
66962;HTU21D;53897;51.126;5.868;2022-10-16T08:05:27;22.54;51.91
66962;HTU21D;53897;51.126;5.868;2022-10-16T08:07:53;22.55;51.96
66962;HTU21D;53897;51.126;5.868;2022-10-16T08:10:21;22.55;51.96
66962;HTU21D;53897;51.126;5.868;2022-10-16T08:12:47;22.55;51.97
66962;HTU21D;53897;51.126;5.868;2022-10-16T08:15:13;22.57;51.98
66962;HTU21D;53897;51.126;5.868;2022-10-16T08:17:39;22.60;51.94
66962;HTU21D;53897;51.126;5.868;2022-10-16T08:20:05;22.62;51.95
66962;HTU21D;53897;51.126;5.868;2022-10-16T08:22:31;22.63;51.98
66962;HTU21D;53897;51.126;5.868;2022-10-16T08:24:56;22.61;52.11
66962;HTU21D;53897;51.126;5.868;2022-10-16T08:27:22;22.61;52.23
66962;HTU21D;53897;51.126;5.868;2022-10-16T08:29:49;22.60;52.32
66962;HTU21D;53897;51.126;5.868;2022-10-16T08:32:15;22.61;52.36
66962;HTU21D;53897;51.126;5.868;2022-10-16T08:34:40;22.63;52.36
66962;HTU21D;53897;51.126;5.868;2022-10-16T08:37:06;22.63;52.37
66962;HTU21D;53897;51.126;5.868;2022-10-16T08:39:33;22.66;52.36
66962;HTU21D;53897;51.126;5.868;2022-10-16T08:45:40;22.68;52.33
66962;HTU21D;53897;51.126;5.868;2022-10-16T08:50:48;22.67;52.68
66962;HTU21D;53897;51.126;5.868;2022-10-16T08:53:26;22.65;52.86
66962;HTU21D;53897;51.126;5.868;2022-10-16T08:55:54;22.63;52.94
66962;HTU21D;53897;51.126;5.868;2022-10-16T08:58:22;22.65;52.93
66962;HTU21D;53897;51.126;5.868;2022-10-16T09:00:57;22.68;52.85
66962;HTU21D;53897;51.126;5.868;2022-10-16T09:11:48;22.79;52.81
66962;HTU21D;53897;51.126;5.868;2022-10-16T09:17:09;22.81;52.77
66962;HTU21D;53897;51.126;5.868;2022-10-16T09:19:51;22.84;52.72
66962;HTU21D;53897;51.126;5.868;2022-10-16T09:22:25;22.85;52.72
66962;HTU21D;53897;51.126;5.868;2022-10-16T09:24:54;22.87;52.71
66962;HTU21D;53897;51.126;5.868;2022-10-16T09:27:20;22.87;52.64
66962;HTU21D;53897;51.126;5.868;2022-10-16T09:29:46;22.90;52.62
66962;HTU21D;53897;51.126;5.868;2022-10-16T09:32:19;22.91;52.59
66962;HTU21D;53897;51.126;5.868;2022-10-16T09:34:53;22.92;52.56
66962;HTU21D;53897;51.126;5.868;2022-10-16T09:37:22;22.93;52.49
66962;HTU21D;53897;51.126;5.868;2022-10-16T09:39:51;22.93;52.46
66962;HTU21D;53897;51.126;5.868;2022-10-16T09:42:21;22.94;52.46
66962;HTU21D;53897;51.126;5.868;2022-10-16T09:44:50;22.94;52.61
66962;HTU21D;53897;51.126;5.868;2022-10-16T09:47:22;22.92;52.74
66962;HTU21D;53897;51.126;5.868;2022-10-16T09:49:59;22.93;52.79
66962;HTU21D;53897;51.126;5.868;2022-10-16T09:52:29;22.93;52.78
66962;HTU21D;53897;51.126;5.868;2022-10-16T09:55:12;22.95;52.72
66962;HTU21D;53897;51.126;5.868;2022-10-16T09:57:55;22.96;52.66
66962;HTU21D;53897;51.126;5.868;2022-10-16T10:00:22;22.98;52.49
66962;HTU21D;53897;51.126;5.868;2022-10-16T10:02:49;22.98;52.29
66962;HTU21D;53897;51.126;5.868;2022-10-16T10:05:29;23.00;52.21
66962;HTU21D;53897;51.126;5.868;2022-10-16T10:08:03;23.02;52.11
66962;HTU21D;53897;51.126;5.868;2022-10-16T10:10:42;23.02;52.07
66962;HTU21D;53897;51.126;5.868;2022-10-16T10:13:22;23.05;52.11
66962;HTU21D;53897;51.126;5.868;2022-10-16T10:15:50;23.05;52.14
66962;HTU21D;53897;51.126;5.868;2022-10-16T10:18:21;23.07;52.14
66962;HTU21D;53897;51.126;5.868;2022-10-16T10:21:02;23.07;52.10
66962;HTU21D;53897;51.126;5.868;2022-10-16T10:23:29;23.10;52.02
66962;HTU21D;53897;51.126;5.868;2022-10-16T10:26:09;23.09;51.98
66962;HTU21D;53897;51.126;5.868;2022-10-16T10:31:42;23.11;51.95
66962;HTU21D;53897;51.126;5.868;2022-10-16T10:40:00;23.13;52.16
66962;HTU21D;53897;51.126;5.868;2022-10-16T10:45:46;23.15;52.33
66962;HTU21D;53897;51.126;5.868;2022-10-16T10:48:28;23.16;52.36
66962;HTU21D;53897;51.126;5.868;2022-10-16T10:51:13;23.17;52.46
66962;HTU21D;53897;51.126;5.868;2022-10-16T10:53:58;23.16;52.40
66962;HTU21D;53897;51.126;5.868;2022-10-16T10:56:48;23.20;52.40
66962;HTU21D;53897;51.126;5.868;2022-10-16T10:59:49;23.21;52.43
66962;HTU21D;53897;51.126;5.868;2022-10-16T11:02:41;23.21;52.41
66962;HTU21D;53897;51.126;5.868;2022-10-16T11:08:02;23.22;52.38
66962;HTU21D;53897;51.126;5.868;2022-10-16T11:10:41;23.24;52.35
66962;HTU21D;53897;51.126;5.868;2022-10-16T11:13:38;23.27;52.37
66962;HTU21D;53897;51.126;5.868;2022-10-16T11:16:22;23.27;52.46
66962;HTU21D;53897;51.126;5.868;2022-10-16T11:21:39;23.30;52.49
66962;HTU21D;53897;51.126;5.868;2022-10-16T11:24:22;23.30;52.51
66962;HTU21D;53897;51.126;5.868;2022-10-16T11:26:51;23.31;52.52
66962;HTU21D;53897;51.126;5.868;2022-10-16T11:29:29;23.35;52.46
66962;HTU21D;53897;51.126;5.868;2022-10-16T11:32:05;23.37;52.48
66962;HTU21D;53897;51.126;5.868;2022-10-16T11:34:47;23.39;52.44
66962;HTU21D;53897;51.126;5.868;2022-10-16T11:37:20;23.38;52.42
66962;HTU21D;53897;51.126;5.868;2022-10-16T11:39:54;23.41;52.40
66962;HTU21D;53897;51.126;5.868;2022-10-16T11:42:30;23.41;52.40
66962;HTU21D;53897;51.126;5.868;2022-10-16T11:45:07;23.43;52.35
66962;HTU21D;53897;51.126;5.868;2022-10-16T11:47:41;23.45;52.35
66962;HTU21D;53897;51.126;5.868;2022-10-16T11:55:36;23.49;52.27
66962;HTU21D;53897;51.126;5.868;2022-10-16T11:58:19;23.50;52.24
66962;HTU21D;53897;51.126;5.868;2022-10-16T12:06:43;23.53;52.16
66962;HTU21D;53897;51.126;5.868;2022-10-16T12:09:29;23.53;52.14
66962;HTU21D;53897;51.126;5.868;2022-10-16T12:11:56;23.54;52.10
66962;HTU21D;53897;51.126;5.868;2022-10-16T12:14:39;23.54;52.09
66962;HTU21D;53897;51.126;5.868;2022-10-16T12:19:57;23.56;52.06
66962;HTU21D;53897;51.126;5.868;2022-10-16T12:22:29;23.58;52.07
66962;HTU21D;53897;51.126;5.868;2022-10-16T12:24:56;23.58;52.06
66962;HTU21D;53897;51.126;5.868;2022-10-16T12:27:31;23.59;52.04
66962;HTU21D;53897;51.126;5.868;2022-10-16T12:30:01;23.59;52.01
66962;HTU21D;53897;51.126;5.868;2022-10-16T12:32:37;23.60;52.01
66962;HTU21D;53897;51.126;5.868;2022-10-16T12:35:21;23.60;52.00
66962;HTU21D;53897;51.126;5.868;2022-10-16T12:37:47;23.61;51.97
66962;HTU21D;53897;51.126;5.868;2022-10-16T12:40:26;23.62;51.95
66962;HTU21D;53897;51.126;5.868;2022-10-16T12:42:53;23.62;51.91
66962;HTU21D;53897;51.126;5.868;2022-10-16T12:45:33;23.62;51.91
66962;HTU21D;53897;51.126;5.868;2022-10-16T12:48:01;23.62;51.88
66962;HTU21D;53897;51.126;5.868;2022-10-16T12:50:32;23.64;51.86
66962;HTU21D;53897;51.126;5.868;2022-10-16T12:53:00;23.62;51.85
66962;HTU21D;53897;51.126;5.868;2022-10-16T12:55:26;23.65;51.82
66962;HTU21D;53897;51.126;5.868;2022-10-16T13:03:55;23.66;51.76
66962;HTU21D;53897;51.126;5.868;2022-10-16T13:20:06;23.68;51.68
66962;HTU21D;53897;51.126;5.868;2022-10-16T13:28:13;23.67;51.64
66962;HTU21D;53897;51.126;5.868;2022-10-16T13:30:40;23.69;51.64
66962;HTU21D;53897;51.126;5.868;2022-10-16T13:33:21;23.68;51.61
66962;HTU21D;53897;51.126;5.868;2022-10-16T13:35:52;23.67;51.60
66962;HTU21D;53897;51.126;5.868;2022-10-16T13:38:23;23.68;51.56
66962;HTU21D;53897;51.126;5.868;2022-10-16T13:40:53;23.68;51.53
66962;HTU21D;53897;51.126;5.868;2022-10-16T13:43:24;23.68;51.53
66962;HTU21D;53897;51.126;5.868;2022-10-16T13:46:18;23.68;51.52
66962;HTU21D;53897;51.126;5.868;2022-10-16T13:48:55;23.69;51.51
66962;HTU21D;53897;51.126;5.868;2022-10-16T13:51:21;23.68;51.49
66962;HTU21D;53897;51.126;5.868;2022-10-16T13:53:47;23.67;51.49
66962;HTU21D;53897;51.126;5.868;2022-10-16T13:56:16;23.67;51.49
66962;HTU21D;53897;51.126;5.868;2022-10-16T13:58:42;23.67;51.46
66962;HTU21D;53897;51.126;5.868;2022-10-16T14:01:22;23.68;51.45
66962;HTU21D;53897;51.126;5.868;2022-10-16T14:03:50;23.67;51.44
66962;HTU21D;53897;51.126;5.868;2022-10-16T14:06:20;23.67;51.45
66962;HTU21D;53897;51.126;5.868;2022-10-16T14:08:58;23.67;51.44
66962;HTU21D;53897;51.126;5.868;2022-10-16T14:11:25;23.66;51.43
66962;HTU21D;53897;51.126;5.868;2022-10-16T14:13:52;23.67;51.43
66962;HTU21D;53897;51.126;5.868;2022-10-16T14:16:22;23.66;51.43
66962;HTU21D;53897;51.126;5.868;2022-10-16T14:19:02;23.65;51.40
66962;HTU21D;53897;51.126;5.868;2022-10-16T14:21:29;23.65;51.41
66962;HTU21D;53897;51.126;5.868;2022-10-16T14:23:56;23.66;51.40
66962;HTU21D;53897;51.126;5.868;2022-10-16T14:26:24;23.65;51.40
66962;HTU21D;53897;51.126;5.868;2022-10-16T14:29:08;23.64;51.40
66962;HTU21D;53897;51.126;5.868;2022-10-16T14:31:35;23.65;51.40
66962;HTU21D;53897;51.126;5.868;2022-10-16T14:34:02;23.62;51.37
66962;HTU21D;53897;51.126;5.868;2022-10-16T14:36:30;23.64;51.38
66962;HTU21D;53897;51.126;5.868;2022-10-16T14:39:05;23.62;51.40
66962;HTU21D;53897;51.126;5.868;2022-10-16T14:41:33;23.61;51.39
66962;HTU21D;53897;51.126;5.868;2022-10-16T14:44:03;23.62;51.38
66962;HTU21D;53897;51.126;5.868;2022-10-16T14:46:36;23.61;51.38
66962;HTU21D;53897;51.126;5.868;2022-10-16T14:49:22;23.60;51.44
66962;HTU21D;53897;51.126;5.868;2022-10-16T14:51:49;23.59;51.51
66962;HTU21D;53897;51.126;5.868;2022-10-16T14:54:17;23.59;51.66
66962;HTU21D;53897;51.126;5.868;2022-10-16T14:56:50;23.58;51.68
66962;HTU21D;53897;51.126;5.868;2022-10-16T15:01:58;23.59;51.66
66962;HTU21D;53897;51.126;5.868;2022-10-16T15:04:23;23.59;51.74
66962;HTU21D;53897;51.126;5.868;2022-10-16T15:06:49;23.58;51.85
66962;HTU21D;53897;51.126;5.868;2022-10-16T15:09:15;23.57;51.90
66962;HTU21D;53897;51.126;5.868;2022-10-16T15:11:41;23.57;51.89
66962;HTU21D;53897;51.126;5.868;2022-10-16T15:14:11;23.57;51.84
66962;HTU21D;53897;51.126;5.868;2022-10-16T15:16:38;23.58;51.82
66962;HTU21D;53897;51.126;5.868;2022-10-16T15:19:04;23.59;51.73
66962;HTU21D;53897;51.126;5.868;2022-10-16T15:21:32;23.57;51.91
66962;HTU21D;53897;51.126;5.868;2022-10-16T15:23:59;23.57;51.85
66962;HTU21D;53897;51.126;5.868;2022-10-16T15:26:27;23.56;51.88
66962;HTU21D;53897;51.126;5.868;2022-10-16T15:28:54;23.57;51.96
66962;HTU21D;53897;51.126;5.868;2022-10-16T15:31:21;23.58;51.90
66962;HTU21D;53897;51.126;5.868;2022-10-16T15:33:52;23.58;51.97
66962;HTU21D;53897;51.126;5.868;2022-10-16T15:36:25;23.57;52.11
66962;HTU21D;53897;51.126;5.868;2022-10-16T15:38:51;23.58;52.19
66962;HTU21D;53897;51.126;5.868;2022-10-16T15:41:17;23.58;52.24
66962;HTU21D;53897;51.126;5.868;2022-10-16T15:43:43;23.58;52.36
66962;HTU21D;53897;51.126;5.868;2022-10-16T15:46:11;23.58;52.49
66962;HTU21D;53897;51.126;5.868;2022-10-16T15:48:39;23.60;52.57
66962;HTU21D;53897;51.126;5.868;2022-10-16T15:51:07;23.60;52.63
66962;HTU21D;53897;51.126;5.868;2022-10-16T15:53:33;23.61;52.67
66962;HTU21D;53897;51.126;5.868;2022-10-16T15:56:06;23.60;52.67
66962;HTU21D;53897;51.126;5.868;2022-10-16T15:58:33;23.62;52.65
66962;HTU21D;53897;51.126;5.868;2022-10-16T16:01:00;23.61;52.62
66962;HTU21D;53897;51.126;5.868;2022-10-16T16:03:27;23.62;52.69
66962;HTU21D;53897;51.126;5.868;2022-10-16T16:05:54;23.64;52.69
66962;HTU21D;53897;51.126;5.868;2022-10-16T16:08:20;23.64;52.69
66962;HTU21D;53897;51.126;5.868;2022-10-16T16:11:07;23.64;52.66
66962;HTU21D;53897;51.126;5.868;2022-10-16T16:13:34;23.66;52.69
66962;HTU21D;53897;51.126;5.868;2022-10-16T16:16:00;23.65;52.83
66962;HTU21D;53897;51.126;5.868;2022-10-16T16:18:26;23.66;52.90
66962;HTU21D;53897;51.126;5.868;2022-10-16T16:20:52;23.66;52.88
66962;HTU21D;53897;51.126;5.868;2022-10-16T16:23:17;23.65;52.98
66962;HTU21D;53897;51.126;5.868;2022-10-16T16:25:44;23.66;53.08
66962;HTU21D;53897;51.126;5.868;2022-10-16T16:28:10;23.67;53.13
66962;HTU21D;53897;51.126;5.868;2022-10-16T16:30:40;23.66;53.27
66962;HTU21D;53897;51.126;5.868;2022-10-16T16:33:06;23.65;53.33
66962;HTU21D;53897;51.126;5.868;2022-10-16T16:35:32;23.66;53.43
66962;HTU21D;53897;51.126;5.868;2022-10-16T16:37:58;23.66;53.43
66962;HTU21D;53897;51.126;5.868;2022-10-16T16:40:23;23.66;53.36
66962;HTU21D;53897;51.126;5.868;2022-10-16T16:42:49;23.67;53.31
66962;HTU21D;53897;51.126;5.868;2022-10-16T16:45:15;23.67;53.34
66962;HTU21D;53897;51.126;5.868;2022-10-16T16:47:40;23.68;53.27
66962;HTU21D;53897;51.126;5.868;2022-10-16T16:50:06;23.66;53.33
66962;HTU21D;53897;51.126;5.868;2022-10-16T16:52:34;23.68;53.43
66962;HTU21D;53897;51.126;5.868;2022-10-16T16:55:00;23.68;53.62
66962;HTU21D;53897;51.126;5.868;2022-10-16T16:57:26;23.68;53.57